Pagrindinis puslapis
METAR-TAF:

METAR-TAF

Oro uostai :

Praha, Čekija

platuma: 50-12-59N, ilguma: 014-23-42E, Aukštis: 280 m

Dabartinis oras

Ataskaita buvo paskelbta 30 minutes, ne 09:00 UTC
Vėjas 4 kt iš Vakarų, svyruoja nuo Pietų/Pietvakarių ir Šiaurės
Temperatūra 14°C
Drėgmė 47%
Slėgis 1029 hPa
Matomumas 10 km arba daugiau
Mažai debesys ne aukštis 3600 ft

METAR: LKVO 200900Z 28004KT 210V350 9999 FEW036 14/03 Q1029

Laikas: 11:30 (09:30 UTC)


TAF: trūkstamas

Orai ataskaitas ir orų prognozės (METAR, TAF).

turimą stotys yra geltonos ir raudonos taškus žemėlapyje.

Perkelti pele per norėdami pamatyti stoties vardą.

Tada spustelėkite, norėdami matyti oro stebėjimo ir prognozės.

Norėdami pakeisti žemėlapį: spustelėkite ant žalios mygtukų su juodo kryžiaus žemyn,; žalią mygtuką su brūkšneliu, jei norite nutolinti; arba žalių rodyklių gretimoms žemėlapius.


METAR-TAF: